X  Fechar Metar - Info de Aeroporto     LPMT Montijo Air Base
Temperatura
16°C Temperatura
10°C Ptº Orvalho
68% Humidade



Vento
13 KM/H
8 MPH
4 M/S
7 NÓS



340°
NNO
Condições Atuais

Limpo Limpo
Pressão 1015.92 (hPa) - 30 (inHg)
Visibilidade 6.2 (milha) - 10 (km)
Aeroporto
Código-Aeroporto LPMT

Localização: Montijo Air Base
Distância: 6 (km)

Metar:
LPMT 260100Z 34007KT CAVOK 16/10 Q1016

Hora: 2022-06-26 02:00 WEST